Airports Portugal Madeira Airport

Madeira Airport (LPMA / FNC)

Facts about Madeira Airport

Name Madeira Airport
City Funchal
Country Portugal
ICAO code LPMA
IATA code FNC
Elevation 58.5216 meters (192 feet)

Weather

METAR

Metar data retrieved Friday, 19 July 2024 at 23:25 UTC (6 minutes ago)

LPMA 192300Z 02011KT 9999 FEW013 24/19 Q1021 RMK WIND POS ROSARIO 35011KT 320V030 RWY05 36009KT RWY23 36009KT 330V040

Live traffic

Navigraph Charts (account required)